Hessdale, Pennsylvania
Current Conditions -  °F | °C
As of 4:53 AM on Wednesday 26 Nov 2014 (Local Time) from KLNS Reporting Station
Light Rain Light Rain  
Wind Chill: 38°   Ceiling: 5000
Heat Index: 42°   Visibility: 10mi
Dew Point: 31°   Wind: 7mph
Humidity: 65%   Direction: 30°NNE
Pressure: 30.1"   Gusts: NA
Location:  39.96°N, 76.1809°W
Report Text: KLNS 260953Z AUTO 03006KT 10SM -RA OVC050 06/M01 A3010 RMK AO2 RAB50 SLP195 P0000 T00561006
Loading
Personal Weather Stations






























Interactive Weather Map New forecast layout! Learn more

10-Day Weather Forecast

Advertisements
Track Severe Weather on mobile